• Join FlightAware (Why Join?)
  • Login
  • US Flag 
Gobble Gobble! 
07:33AM EST


 

Airport Tracker/Info


-or-


 

Live Flight TrackerFlight Track Log ✈ N745VJ ✈ 06-May-2013 ✈ KLGA - KCLT

Flight Track Log - Related Links

Times and Time Zones

All times are in EDT time to prevent confusion due to time zone crossing. See the N745VJ flight status page for this flight to view local times or setup timezone preferences in your user account.

Time Position Orientation Groundspeed Altitude Reporting Facility
EDT Latitude Longitude Course Direction KTS MPH feet Rate Location/Type
04:09PM 40.7385 -74.3555 264° West  Level FlightAware Approximate
04:09PM 40.8000 -73.7833 249° West 257 296 5,900  Level New York TRACON
04:10PM 40.7255 -74.5187 264° West  Level FlightAware Approximate
04:10PM 40.8333 -73.8667 298° West 279 321 9,000  Level New York TRACON
04:11PM 40.7090 -74.6806 252° West  Level FlightAware Approximate
04:11PM 40.8333 -73.9667 270° West 294 338 11,400  Level New York TRACON
04:12PM 40.7000 -74.8428 270° West  Level FlightAware Approximate
04:12PM 40.8167 -74.0833 259° West 347 399 13,400  Level New York TRACON
04:13PM 40.6797 -75.0015 255° West  Level FlightAware Approximate
04:14PM 40.6409 -75.1571 249° West  Level FlightAware Approximate
04:14PM 40.7046 -74.2372 264° West  Level Estimated
04:14PM 40.7833 -74.3667 264° West 376 433 15,600  Level New York TRACON
04:15PM 40.7667 -74.5000 261° West 375 432 16,800 1,140 Climbing New York TRACON
04:18PM 40.7000 -74.8046 270° West  Level FlightAware Approximate
04:19PM 40.7022 -74.9483 270° West 394 453 20,700  Level New York Center
04:20PM 40.6764 -75.0917 257° West 404 465 22,900 1,860 Climbing New York Center
04:22PM 40.5581 -75.3547 239° Southwest 414 476 26,200 1,560 Climbing New York Center
04:23PM 40.4942 -75.4922 239° Southwest 427 491 27,600 1,440 Climbing New York Center
04:24PM 40.4303 -75.6297 239° Southwest 434 499 29,200 1,440 Climbing New York Center
04:25PM 40.3683 -75.7669 239° Southwest 434 499 30,600 1,200 Climbing New York Center
04:26PM 40.2969 -75.9225 239° Southwest 442 509 31,700 1,320 Climbing New York Center
04:28PM 40.1578 -76.2131 238° Southwest 443 510 34,700 1,440 Climbing Washington Center
04:29PM 40.0967 -76.3481 239° Southwest 448 516 36,300 1,380 Climbing Washington Center
04:30PM 40.0353 -76.4803 239° Southwest 432 497 37,500 840 Climbing Washington Center
04:31PM 39.9761 -76.5986 237° Southwest 419 482 38,000 120 Climbing Washington Center
04:33PM 39.8486 -76.8669 238° Southwest 419 482 38,000  Level Washington Center
04:34PM 39.7889 -76.9956 239° Southwest 414 476 38,000 -60 Level Washington Center
04:35PM 39.7311 -77.1214 239° Southwest 414 476 37,900  Descending Washington Center
04:36PM 39.6711 -77.2494 239° Southwest 414 476 38,000  Climbing Washington Center
04:37PM 39.6089 -77.3772 238° Southwest 424 488 38,000  Level Washington Center
04:38PM 39.5483 -77.5078 239° Southwest 424 488 38,000  Level Washington Center
04:40PM 39.4297 -77.7572 238° Southwest 419 482 38,000  Level Washington Center
04:41PM 39.3689 -77.8869 239° Southwest 424 488 38,000  Level Washington Center
04:42PM 39.3183 -78.0194 244° Southwest 424 488 38,000  Level Washington Center
04:43PM 39.2656 -78.1492 242° Southwest 414 476 38,000  Level Washington Center
04:44PM 39.2192 -78.2681 243° Southwest 408 470 38,000  Level Washington Center
04:45PM 39.1661 -78.4000 243° Southwest 408 470 38,000  Level Washington Center
04:46PM 39.1131 -78.5317 243° Southwest 414 476 38,100  Climbing Washington Center
04:47PM 39.0575 -78.6683 242° Southwest 421 484 38,000 -60 Descending Washington Center
04:48PM 39.0039 -78.8025 243° Southwest 421 484 38,000  Level Washington Center
04:49PM 38.9503 -78.9361 243° Southwest 421 484 38,000  Level Washington Center
04:50PM 38.8964 -79.0697 243° Southwest 421 484 38,000  Level Washington Center
04:51PM 38.8467 -79.2061 245° Southwest 421 484 38,000  Level Washington Center
04:52PM 38.8150 -79.3564 255° West 426 490 38,000  Level Washington Center
04:53PM 38.7869 -79.5094 257° West 438 504 38,100  Climbing Washington Center
04:54PM 38.7561 -79.6861 257° West 454 522 38,000 -60 Descending Washington Center
04:55PM 38.7281 -79.8364 257° West 449 517 38,000 -60 Level Washington Center
04:57PM 38.6750 -80.1022 256° West 439 505 37,900  Descending Indianapolis Center
04:58PM 38.6458 -80.2558 256° West 443 510 38,000  Climbing Indianapolis Center
05:00PM 38.5916 -80.4920 254° West  Level FlightAware Approximate
05:01PM 38.5522 -80.7483 254° West 444 511 38,000  Level Indianapolis Center
05:02PM 38.5231 -80.8972 256° West 433 498 38,000  Level Indianapolis Center
05:03PM 38.4936 -81.0444 256° West 429 494 38,000 -300 Level Indianapolis Center
05:05PM 38.4353 -81.3403 256° West 427 491 37,100 -660 Descending Indianapolis Center
05:06PM 38.4028 -81.4997 255° West 455 524 36,000 -360 Descending Indianapolis Center
05:08PM 38.2842 -81.7689 241° Southwest 422 486 36,000  Level Indianapolis Center
05:09PM 38.1572 -81.8069 193° South 388 447 36,000  Level Indianapolis Center
05:10PM 38.0486 -81.8275 188° South 393 452 36,000 -540 Level Indianapolis Center
05:12PM 37.8943 -81.8375 189° South  Level FlightAware Approximate
05:13PM 37.7058 -81.8928 190° South 407 468 34,000  Level Indianapolis Center
05:15PM 37.5666 -81.8383 163° South  Level Estimated
05:16PM 37.3336 -81.9639 163° South 427 491 29,600  Level Atlanta Center
05:17PM 37.2369 -81.9806 188° South 423 487 28,300 -840 Descending Indianapolis Center
05:18PM 37.1056 -82.0047 188° South 409 471 28,000 -180 Descending Indianapolis Center
05:19PM 37.1656 -81.9819 190° South  Level FlightAware Approximate
05:19PM 36.9931 -82.0258 189° South 408 470 28,000  Level Indianapolis Center
05:20PM 36.8792 -82.0464 188° South 408 470 28,000 -300 Level Indianapolis Center
05:22PM 36.8616 -81.5659 163° South  Level Estimated
05:22PM 36.7568 -82.0628 188° South  Level FlightAware Approximate
05:22PM 36.6556 -82.0878 188° South 404 465 27,100  Level Indianapolis Center
05:24PM 36.5403 -82.1028 186° South  Level FlightAware Approximate
05:24PM 36.4522 -82.1236 186° South 401 461 25,300  Level Atlanta Center
05:26PM 36.2669 -82.0172 155° Southeast 364 419 23,300 -1,080 Descending Atlanta Center
05:27PM 36.1761 -81.9553 151° Southeast 357 411 22,200 -1,080 Descending Atlanta Center
05:28PM 36.0856 -81.8958 152° Southeast 357 411 21,200 -1,500 Descending Atlanta Center
05:29PM 35.9969 -81.8392 153° Southeast 357 411 19,200 -2,100 Descending Atlanta Center
05:31PM 35.8771 -81.7589 150° Southeast  Level FlightAware Approximate
05:31PM 35.8217 -81.7286 150° Southeast 357 411 14,900  Level Atlanta Center
05:32PM 35.7350 -81.6722 152° Southeast 357 411 12,900 -1,920 Descending Atlanta Center
05:33PM 35.6969 -81.6478 152° Southeast 344 396 12,200 -1,140 Descending Atlanta Center
05:33PM 35.6569 -81.6183 149° Southeast 347 399 11,800 -1,140 Descending Atlanta Center
05:34PM 35.6253 -81.6014 156° South 290 334 11,100 -840 Descending Atlanta Center
05:34PM 35.5911 -81.5642 138° Southeast 302 348 11,000 -480 Descending Atlanta Center
05:35PM 35.5497 -81.4861 123° Southeast 279 321 10,400 -840 Descending Atlanta Center
05:36PM 35.5428 -81.4481 103° East 276 318 9,900 -1,500 Descending Atlanta Center
05:36PM 35.5311 -81.3925 104° East 267 307 8,900 -1,920 Descending Atlanta Center
05:37PM 35.5242 -81.3544 103° East 272 313 8,000 -1,740 Descending Atlanta Center
05:37PM 35.5106 -81.3039 108° East 272 313 7,200 -1,020 Descending Atlanta Center
05:38PM 35.5033 -81.2631 102° East 274 315 7,000 -180 Descending Atlanta Center
05:39PM 35.4867 -81.1744 103° East 272 313 7,000 -600 Level Atlanta Center
05:40PM 35.4678 -81.0833 104° East 267 307 5,800 -1,140 Descending Atlanta Center
05:40PM 35.4583 -81.0403 105° East 264 304 5,300 -1,320 Descending Atlanta Center
05:41PM 35.4433 -81.0153 126° Southeast 215 247 4,500 -1,320 Descending Atlanta Center
05:41PM 35.4175 -80.9908 142° Southeast 217 250 4,000 -600 Descending Atlanta Center
05:42PM 35.4006 -80.9736 140° Southeast 201 231 4,000 -660 Level Atlanta Center
05:43PM 35.3503 -80.9678 175° South 174 200 3,100 -900 Descending Atlanta Center
05:44PM 35.3019 -80.9619 174° South 169 194 2,200 -780 Descending Atlanta Center
05:45PM 35.2664 -80.9583 175° South 119 137 1,600 -660 Descending Atlanta Center
05:46PM 35.2311 -80.9569 178° South 119 137 900 -720 Descending Atlanta Center